createdAt,value
2023-03-05T00:00:34.649Z,7.18
2023-03-05T00:03:01.254Z,7.10
2023-03-05T00:05:27.843Z,7.15
2023-03-05T00:07:54.405Z,7.22
2023-03-05T00:10:20.999Z,7.13
2023-03-05T00:12:47.621Z,6.67
2023-03-05T00:15:14.235Z,6.60
2023-03-05T00:17:40.953Z,6.71
2023-03-05T00:20:07.501Z,6.82
2023-03-05T00:22:34.095Z,6.77
2023-03-05T00:25:00.664Z,6.65
2023-03-05T00:27:27.254Z,6.62
2023-03-05T00:29:53.822Z,6.60
2023-03-05T00:32:20.416Z,6.63
2023-03-05T00:34:47.076Z,6.57
2023-03-05T00:37:13.853Z,6.60
2023-03-05T00:39:40.454Z,6.06
2023-03-05T00:42:07.046Z,5.88
2023-03-05T00:44:33.625Z,6.04
2023-03-05T00:47:00.230Z,6.22
2023-03-05T00:49:26.786Z,6.24
2023-03-05T00:51:53.407Z,6.29
2023-03-05T00:54:19.963Z,6.36
2023-03-05T00:56:48.713Z,6.27
2023-03-05T00:59:15.286Z,6.38
2023-03-05T01:01:42.095Z,6.44
2023-03-05T01:04:08.689Z,6.40
2023-03-05T01:06:35.401Z,6.39
2023-03-05T01:09:01.975Z,6.00
2023-03-05T01:11:28.588Z,5.82
2023-03-05T01:13:55.221Z,5.97
2023-03-05T01:16:21.846Z,6.09
2023-03-05T01:18:48.519Z,6.00
2023-03-05T01:21:15.105Z,5.95
2023-03-05T01:23:41.704Z,6.07
2023-03-05T01:26:08.264Z,6.07
2023-03-05T01:28:34.815Z,5.96
2023-03-05T01:31:01.450Z,5.95
2023-03-05T01:33:28.044Z,5.97
2023-03-05T01:35:54.636Z,5.65
2023-03-05T01:38:21.253Z,5.79
2023-03-05T01:40:47.867Z,5.86
2023-03-05T01:43:14.465Z,5.73
2023-03-05T01:45:41.352Z,5.61
2023-03-05T01:48:07.943Z,5.43
2023-03-05T01:50:34.506Z,5.31
2023-03-05T01:53:01.119Z,5.24
2023-03-05T01:55:27.705Z,5.35
2023-03-05T01:57:54.300Z,5.49
2023-03-05T02:00:21.169Z,5.68
2023-03-05T02:02:47.759Z,5.61
2023-03-05T02:05:14.346Z,5.58
2023-03-05T02:07:41.024Z,5.72
2023-03-05T02:10:07.684Z,5.47
2023-03-05T02:12:34.278Z,5.61
2023-03-05T02:15:00.833Z,5.58
2023-03-05T02:17:28.284Z,5.33
2023-03-05T02:19:54.868Z,5.35
2023-03-05T02:22:21.435Z,5.49
2023-03-05T02:24:48.008Z,5.48
2023-03-05T02:27:14.606Z,5.56
2023-03-05T02:29:41.182Z,5.30
2023-03-05T02:32:07.887Z,5.28
2023-03-05T02:34:34.711Z,5.29
2023-03-05T02:37:01.337Z,5.36
2023-03-05T02:39:27.915Z,5.23
2023-03-05T02:41:54.486Z,5.33
2023-03-05T02:44:21.165Z,5.31
2023-03-05T02:46:47.762Z,4.93
2023-03-05T02:49:14.347Z,4.80
2023-03-05T02:51:40.958Z,4.56
2023-03-05T02:54:07.558Z,4.83
2023-03-05T02:56:34.149Z,4.94
2023-03-05T02:59:00.738Z,4.93
2023-03-05T03:01:27.380Z,4.97
2023-03-05T03:03:53.963Z,4.59
2023-03-05T03:06:20.537Z,4.62
2023-03-05T03:08:47.145Z,4.79
2023-03-05T03:11:13.718Z,4.86
2023-03-05T03:13:40.321Z,4.86
2023-03-05T03:16:06.883Z,4.68
2023-03-05T03:18:33.516Z,4.75
2023-03-05T03:21:00.107Z,4.76
2023-03-05T03:23:26.894Z,4.84
2023-03-05T03:25:53.493Z,4.94
2023-03-05T03:28:20.066Z,4.90
2023-03-05T03:30:46.787Z,4.65
2023-03-05T03:33:13.356Z,4.45
2023-03-05T03:35:40.129Z,4.71
2023-03-05T03:38:06.826Z,4.83
2023-03-05T03:40:33.475Z,4.93
2023-03-05T03:43:00.040Z,4.91
2023-03-05T03:45:26.637Z,4.97
2023-03-05T03:47:53.199Z,4.97
2023-03-05T03:50:19.840Z,4.89
2023-03-05T03:52:46.481Z,4.83
2023-03-05T03:55:13.041Z,4.84
2023-03-05T03:57:39.645Z,4.78
2023-03-05T04:00:06.206Z,4.88
2023-03-05T04:02:32.806Z,4.68
2023-03-05T04:04:59.408Z,4.70
2023-03-05T04:07:25.967Z,4.74
2023-03-05T04:09:52.570Z,4.33
2023-03-05T04:12:19.140Z,4.58
2023-03-05T04:14:45.708Z,4.51
2023-03-05T04:17:12.313Z,4.62
2023-03-05T04:19:38.873Z,4.54
2023-03-05T04:22:05.487Z,4.43
2023-03-05T04:24:32.042Z,4.47
2023-03-05T04:26:58.680Z,4.04
2023-03-05T04:29:25.272Z,4.04
2023-03-05T04:31:51.850Z,4.21
2023-03-05T04:34:18.433Z,4.24
2023-03-05T04:36:45.011Z,3.95
2023-03-05T04:39:11.801Z,4.15
2023-03-05T04:41:38.375Z,4.23
2023-03-05T04:44:04.937Z,4.30
2023-03-05T04:46:31.590Z,4.46
2023-03-05T04:48:58.201Z,4.38
2023-03-05T04:51:24.815Z,4.38
2023-03-05T04:53:51.391Z,4.12
2023-03-05T04:56:18.008Z,4.08
2023-03-05T04:58:44.606Z,4.17
2023-03-05T05:01:11.198Z,3.99
2023-03-05T05:03:37.779Z,4.08
2023-03-05T05:06:04.377Z,4.08
2023-03-05T05:08:30.959Z,4.05
2023-03-05T05:10:57.541Z,4.09
2023-03-05T05:13:24.121Z,4.14
2023-03-05T05:15:50.696Z,4.05
2023-03-05T05:18:17.263Z,4.13
2023-03-05T05:20:43.831Z,4.19
2023-03-05T05:23:10.395Z,4.24
2023-03-05T05:25:36.984Z,4.23
2023-03-05T05:28:03.574Z,4.34
2023-03-05T05:30:30.315Z,4.23
2023-03-05T05:32:56.953Z,4.21
2023-03-05T05:35:23.573Z,4.20
2023-03-05T05:37:50.169Z,4.33
2023-03-05T05:40:16.843Z,4.25
2023-03-05T05:42:43.411Z,4.15
2023-03-05T05:45:10.036Z,4.32
2023-03-05T05:47:36.664Z,4.21
2023-03-05T05:50:03.222Z,4.09
2023-03-05T05:52:29.813Z,4.10
2023-03-05T05:54:56.365Z,4.26
2023-03-05T05:57:22.960Z,4.26
2023-03-05T05:59:49.902Z,4.31
2023-03-05T06:02:16.574Z,4.28
2023-03-05T06:04:43.213Z,4.40
2023-03-05T06:07:09.908Z,4.33
2023-03-05T06:09:36.506Z,4.43
2023-03-05T06:12:03.082Z,4.34
2023-03-05T06:14:29.726Z,4.34
2023-03-05T06:16:56.394Z,4.30
2023-03-05T06:19:23.056Z,4.32
2023-03-05T06:21:49.625Z,4.62
2023-03-05T06:24:16.225Z,4.74
2023-03-05T06:26:42.808Z,4.78
2023-03-05T06:29:12.644Z,4.81
2023-03-05T06:31:39.241Z,4.98
2023-03-05T06:34:05.881Z,5.28
2023-03-05T06:36:32.480Z,5.19
2023-03-05T06:38:59.060Z,5.00
2023-03-05T06:41:25.665Z,5.36
2023-03-05T06:43:52.247Z,5.53
2023-03-05T06:46:19.053Z,5.54
2023-03-05T06:48:45.646Z,5.51
2023-03-05T06:51:12.250Z,5.19
2023-03-05T06:53:38.892Z,5.38
2023-03-05T06:56:05.455Z,5.62
2023-03-05T06:58:32.048Z,5.92
2023-03-05T07:00:58.659Z,6.12
2023-03-05T07:03:25.258Z,6.00
2023-03-05T07:05:51.834Z,6.07
2023-03-05T07:08:18.425Z,6.25
2023-03-05T07:10:44.999Z,6.36
2023-03-05T07:13:11.570Z,6.61
2023-03-05T07:15:38.242Z,6.87
2023-03-05T07:18:04.864Z,6.78
2023-03-05T07:20:31.457Z,6.89
2023-03-05T07:22:58.037Z,7.04
2023-03-05T07:25:24.669Z,7.16
2023-03-05T07:27:51.259Z,6.93
2023-03-05T07:30:17.812Z,6.64
2023-03-05T07:32:44.395Z,6.68
2023-03-05T07:35:10.950Z,6.89
2023-03-05T07:37:37.826Z,7.41
2023-03-05T07:40:04.581Z,7.56
2023-03-05T07:42:31.285Z,7.41
2023-03-05T07:44:57.958Z,7.68
2023-03-05T07:47:24.524Z,7.94
2023-03-05T07:49:51.116Z,8.13
2023-03-05T07:52:17.723Z,8.15
2023-03-05T07:54:44.300Z,7.89
2023-03-05T07:57:10.904Z,8.16
2023-03-05T07:59:37.577Z,8.50
2023-03-05T08:02:04.186Z,8.68
2023-03-05T08:04:30.793Z,8.59
2023-03-05T08:06:57.407Z,8.85
2023-03-05T08:09:23.985Z,9.06
2023-03-05T08:11:50.545Z,8.88
2023-03-05T08:14:17.131Z,8.96
2023-03-05T08:16:44.518Z,9.10
2023-03-05T08:19:11.888Z,9.31
2023-03-05T08:21:38.502Z,9.73
2023-03-05T08:24:05.084Z,9.91
2023-03-05T08:26:31.705Z,9.31
2023-03-05T08:28:58.282Z,9.58
2023-03-05T08:31:24.936Z,10.01
2023-03-05T08:33:51.519Z,10.37
2023-03-05T08:36:18.117Z,10.49
2023-03-05T08:38:44.728Z,10.73
2023-03-05T08:41:11.329Z,10.97
2023-03-05T08:43:37.927Z,11.09
2023-03-05T08:46:04.736Z,11.39
2023-03-05T08:48:31.307Z,11.44
2023-03-05T08:50:57.919Z,11.55
2023-03-05T08:53:24.498Z,11.54
2023-03-05T08:55:51.267Z,11.85
2023-03-05T08:58:17.848Z,11.96
2023-03-05T09:00:44.460Z,11.47
2023-03-05T09:03:11.067Z,11.16
2023-03-05T09:05:39.083Z,11.42
2023-03-05T09:08:07.722Z,11.79
2023-03-05T09:10:34.361Z,11.50
2023-03-05T09:13:00.960Z,11.77
2023-03-05T09:15:27.556Z,11.91
2023-03-05T09:17:54.155Z,12.36
2023-03-05T09:20:20.747Z,12.60
2023-03-05T09:22:47.317Z,12.65
2023-03-05T09:25:13.921Z,12.58
2023-03-05T09:27:40.524Z,11.43
2023-03-05T09:30:07.222Z,11.86
2023-03-05T09:32:33.803Z,11.35
2023-03-05T09:35:00.398Z,11.00
2023-03-05T09:37:27.010Z,11.39
2023-03-05T09:39:53.675Z,11.93
2023-03-05T09:42:20.493Z,12.45
2023-03-05T09:44:47.090Z,12.85
2023-03-05T09:47:14.707Z,12.93
2023-03-05T09:49:41.444Z,13.42
2023-03-05T09:52:08.047Z,13.19
2023-03-05T09:54:34.638Z,13.09
2023-03-05T09:57:01.223Z,13.52
2023-03-05T09:59:27.813Z,12.77
2023-03-05T10:01:54.386Z,13.04
2023-03-05T10:04:21.187Z,13.05
2023-03-05T10:06:47.803Z,13.03
2023-03-05T10:09:14.365Z,13.37
2023-03-05T10:11:40.996Z,13.79
2023-03-05T10:14:07.586Z,13.73
2023-03-05T10:16:35.225Z,13.97
2023-03-05T10:19:01.794Z,13.44
2023-03-05T10:21:28.451Z,13.89
2023-03-05T10:23:55.072Z,13.76
2023-03-05T10:26:21.678Z,13.24
2023-03-05T10:28:48.270Z,13.30
2023-03-05T10:31:14.912Z,12.76
2023-03-05T10:33:41.487Z,13.49
2023-03-05T10:36:08.094Z,14.09
2023-03-05T10:38:34.679Z,12.94
2023-03-05T10:41:01.292Z,13.73
2023-03-05T10:43:27.910Z,14.50
2023-03-05T10:45:54.572Z,14.81
2023-03-05T10:48:21.197Z,15.64
2023-03-05T10:50:47.773Z,16.36
2023-03-05T10:53:14.401Z,15.21
2023-03-05T10:55:40.971Z,14.53
2023-03-05T10:58:07.618Z,13.64
2023-03-05T11:00:34.175Z,15.02
2023-03-05T11:03:00.785Z,14.85
2023-03-05T11:05:27.358Z,14.33
2023-03-05T11:07:53.951Z,15.06
2023-03-05T11:10:20.508Z,15.58
2023-03-05T11:12:47.115Z,16.34
2023-03-05T11:15:13.719Z,16.64
2023-03-05T11:17:40.609Z,15.27
2023-03-05T11:20:07.240Z,15.46
2023-03-05T11:22:33.812Z,14.83
2023-03-05T11:25:00.410Z,13.77
2023-03-05T11:27:27.157Z,14.54
2023-03-05T11:29:53.757Z,15.23
2023-03-05T11:32:20.418Z,15.19
2023-03-05T11:34:47.078Z,15.14
2023-03-05T11:37:13.677Z,14.39
2023-03-05T11:39:40.233Z,14.11
2023-03-05T11:42:06.834Z,14.20
2023-03-05T11:44:33.414Z,14.23
2023-03-05T11:46:59.992Z,14.50
2023-03-05T11:49:26.550Z,14.36
2023-03-05T11:51:53.163Z,14.41
2023-03-05T11:54:19.760Z,14.98
2023-03-05T11:56:46.411Z,15.01
2023-03-05T11:59:13.000Z,15.15
2023-03-05T12:01:39.588Z,14.96
2023-03-05T12:04:06.251Z,15.51
2023-03-05T12:06:32.825Z,16.11
2023-03-05T12:08:59.435Z,16.20
2023-03-05T12:11:26.001Z,15.14
2023-03-05T12:13:52.594Z,15.66
2023-03-05T12:16:19.264Z,15.14
2023-03-05T12:18:45.925Z,15.25
2023-03-05T12:21:12.518Z,14.07
2023-03-05T12:23:39.541Z,14.97
2023-03-05T12:26:06.709Z,14.94
2023-03-05T12:28:33.275Z,15.16
2023-03-05T12:30:59.903Z,15.67
2023-03-05T12:33:28.654Z,16.40
2023-03-05T12:35:55.250Z,16.62
2023-03-05T12:38:27.038Z,16.74
2023-03-05T12:40:53.839Z,15.53
2023-03-05T12:43:20.411Z,14.94
2023-03-05T12:45:47.030Z,16.07
2023-03-05T12:48:13.625Z,16.23
2023-03-05T12:50:40.216Z,16.29
2023-03-05T12:53:06.888Z,16.88
2023-03-05T12:55:33.504Z,17.16
2023-03-05T12:58:00.160Z,17.49
2023-03-05T13:00:26.744Z,17.94
2023-03-05T13:02:53.348Z,17.46
2023-03-05T13:05:19.932Z,17.91
2023-03-05T13:07:46.627Z,17.39
2023-03-05T13:10:16.024Z,17.63
2023-03-05T13:12:42.711Z,18.09
2023-03-05T13:15:09.273Z,17.65
2023-03-05T13:17:35.865Z,17.47
2023-03-05T13:20:02.440Z,17.49
2023-03-05T13:22:28.999Z,17.84
2023-03-05T13:24:55.583Z,18.22
2023-03-05T13:27:23.187Z,18.41
2023-03-05T13:29:49.965Z,18.23
2023-03-05T13:32:16.592Z,17.65
2023-03-05T13:34:47.500Z,17.46
2023-03-05T13:37:14.518Z,16.66
2023-03-05T13:39:41.076Z,16.28
2023-03-05T13:42:07.648Z,16.44
2023-03-05T13:44:34.237Z,16.44
2023-03-05T13:47:03.041Z,16.34
2023-03-05T13:49:29.649Z,17.29
2023-03-05T13:51:56.241Z,17.45
2023-03-05T13:54:22.820Z,17.87
2023-03-05T13:56:49.409Z,17.08
2023-03-05T13:59:16.008Z,17.56
2023-03-05T14:01:42.573Z,18.02
2023-03-05T14:04:09.243Z,17.87
2023-03-05T14:06:35.853Z,18.26
2023-03-05T14:09:02.486Z,18.32
2023-03-05T14:11:29.097Z,18.24
2023-03-05T14:13:55.694Z,18.45
2023-03-05T14:16:22.498Z,18.40
2023-03-05T14:18:49.117Z,18.73
2023-03-05T14:21:15.727Z,18.27
2023-03-05T14:23:42.293Z,17.58
2023-03-05T14:26:08.932Z,17.69
2023-03-05T14:28:35.523Z,17.99
2023-03-05T14:31:02.164Z,18.25
2023-03-05T14:33:28.765Z,18.32
2023-03-05T14:35:55.442Z,17.24
2023-03-05T14:38:22.025Z,17.72
2023-03-05T14:40:48.626Z,17.37
2023-03-05T14:43:15.203Z,16.64
2023-03-05T14:45:41.858Z,17.04
2023-03-05T14:48:08.464Z,17.36
2023-03-05T14:50:35.036Z,17.33
2023-03-05T14:53:01.655Z,17.76
2023-03-05T14:55:28.423Z,18.14
2023-03-05T14:57:55.124Z,18.46
2023-03-05T15:00:21.719Z,18.58
2023-03-05T15:02:48.376Z,18.42
2023-03-05T15:05:14.959Z,17.99
2023-03-05T15:07:41.608Z,17.86
2023-03-05T15:10:08.291Z,17.80
2023-03-05T15:12:34.884Z,17.92
2023-03-05T15:15:01.528Z,17.93
2023-03-05T15:17:28.125Z,15.63
2023-03-05T15:19:54.694Z,15.06
2023-03-05T15:22:21.247Z,15.01
2023-03-05T15:24:47.845Z,16.04
2023-03-05T15:27:14.652Z,16.46
2023-03-05T15:29:41.291Z,17.08
2023-03-05T15:32:07.931Z,17.14
2023-03-05T15:34:34.563Z,16.77
2023-03-05T15:37:01.142Z,16.70
2023-03-05T15:39:27.779Z,15.22
2023-03-05T15:41:54.390Z,13.59
2023-03-05T15:44:20.975Z,14.04
2023-03-05T15:46:47.670Z,14.51
2023-03-05T15:49:14.623Z,13.09
2023-03-05T15:51:41.243Z,13.59
2023-03-05T15:54:07.843Z,13.60
2023-03-05T15:56:34.427Z,13.37
2023-03-05T15:59:00.995Z,14.19
2023-03-05T16:01:27.629Z,14.55
2023-03-05T16:03:54.236Z,14.60
2023-03-05T16:06:20.999Z,15.05
2023-03-05T16:08:47.617Z,14.50
2023-03-05T16:11:14.194Z,14.17
2023-03-05T16:13:40.805Z,14.15
2023-03-05T16:16:07.464Z,14.21
2023-03-05T16:18:34.080Z,14.44
2023-03-05T16:21:00.983Z,14.24
2023-03-05T16:23:27.582Z,14.04
2023-03-05T16:25:54.210Z,13.97
2023-03-05T16:28:20.781Z,13.52
2023-03-05T16:30:47.378Z,12.67
2023-03-05T16:33:13.936Z,12.43
2023-03-05T16:35:40.555Z,12.60
2023-03-05T16:38:07.139Z,12.96
2023-03-05T16:40:56.546Z,12.84
2023-03-05T16:43:20.304Z,12.41
2023-03-05T16:45:46.962Z,12.96
2023-03-05T16:48:13.537Z,13.31
2023-03-05T16:50:40.161Z,13.12
2023-03-05T16:53:06.755Z,12.73
2023-03-05T16:55:33.330Z,12.45
2023-03-05T16:57:59.939Z,12.07
2023-03-05T17:00:26.517Z,12.03
2023-03-05T17:02:53.126Z,12.24
2023-03-05T17:05:19.701Z,11.79
2023-03-05T17:07:46.304Z,11.68
2023-03-05T17:10:12.870Z,11.60
2023-03-05T17:12:39.436Z,11.97
2023-03-05T17:15:06.047Z,12.13
2023-03-05T17:17:32.608Z,12.17
2023-03-05T17:19:59.210Z,12.51
2023-03-05T17:22:25.774Z,12.72
2023-03-05T17:24:52.463Z,12.85
2023-03-05T17:27:19.099Z,12.69
2023-03-05T17:29:45.690Z,12.81
2023-03-05T17:32:12.348Z,12.61
2023-03-05T17:34:39.155Z,12.66
2023-03-05T17:37:05.722Z,12.58
2023-03-05T17:39:32.281Z,12.56
2023-03-05T17:41:58.907Z,12.58
2023-03-05T17:44:25.498Z,12.49
2023-03-05T17:46:52.137Z,12.47
2023-03-05T17:49:18.752Z,12.35
2023-03-05T17:51:45.355Z,12.26
2023-03-05T17:54:11.939Z,12.24
2023-03-05T17:56:38.547Z,12.05
2023-03-05T17:59:05.114Z,11.81
2023-03-05T18:01:31.853Z,11.72
2023-03-05T18:03:58.518Z,11.64
2023-03-05T18:06:25.245Z,11.69
2023-03-05T18:08:51.815Z,11.73
2023-03-05T18:11:18.498Z,11.71
2023-03-05T18:13:45.081Z,11.55
2023-03-05T18:16:11.697Z,11.43
2023-03-05T18:18:38.325Z,11.37
2023-03-05T18:21:04.924Z,11.36
2023-03-05T18:23:31.503Z,11.30
2023-03-05T18:25:58.250Z,11.27
2023-03-05T18:28:24.839Z,11.22
2023-03-05T18:30:51.468Z,11.27
2023-03-05T18:33:18.221Z,10.92
2023-03-05T18:35:44.925Z,10.94
2023-03-05T18:38:11.599Z,11.06
2023-03-05T18:40:38.165Z,10.93
2023-03-05T18:43:04.776Z,10.83
2023-03-05T18:45:31.336Z,10.72
2023-03-05T18:47:57.958Z,10.73
2023-03-05T18:50:24.553Z,10.78
2023-03-05T18:52:51.143Z,10.83
2023-03-05T18:55:18.247Z,10.86
2023-03-05T18:57:44.829Z,10.88
2023-03-05T19:00:11.402Z,10.89
2023-03-05T19:02:38.057Z,10.74
2023-03-05T19:05:04.711Z,10.77
2023-03-05T19:07:31.316Z,10.80
2023-03-05T19:09:59.644Z,10.68
2023-03-05T19:12:26.421Z,10.37
2023-03-05T19:14:53.036Z,10.72
2023-03-05T19:17:19.643Z,10.96
2023-03-05T19:19:46.226Z,11.10
2023-03-05T19:22:12.827Z,11.19
2023-03-05T19:24:39.384Z,10.60
2023-03-05T19:27:05.950Z,10.40
2023-03-05T19:29:32.563Z,9.93
2023-03-05T19:31:59.163Z,9.84
2023-03-05T19:34:25.775Z,10.18
2023-03-05T19:36:52.565Z,10.58
2023-03-05T19:39:19.138Z,10.20
2023-03-05T19:41:46.045Z,10.09
2023-03-05T19:44:12.642Z,9.81
2023-03-05T19:46:39.310Z,9.77
2023-03-05T19:49:06.159Z,9.89
2023-03-05T19:51:32.930Z,9.86
2023-03-05T19:53:59.561Z,9.59
2023-03-05T19:56:26.176Z,9.84
2023-03-05T19:58:52.746Z,9.67
2023-03-05T20:01:19.422Z,9.17
2023-03-05T20:03:46.017Z,9.17
2023-03-05T20:06:12.599Z,8.97
2023-03-05T20:08:39.234Z,8.79
2023-03-05T20:11:05.798Z,8.73
2023-03-05T20:13:32.462Z,8.86
2023-03-05T20:15:59.134Z,8.86
2023-03-05T20:18:25.797Z,8.61
2023-03-05T20:20:52.405Z,8.65
2023-03-05T20:23:18.983Z,8.55
2023-03-05T20:25:45.533Z,8.72
2023-03-05T20:28:12.127Z,8.86
2023-03-05T20:30:38.718Z,9.02
2023-03-05T20:33:05.311Z,8.65
2023-03-05T20:35:31.933Z,8.78
2023-03-05T20:37:58.560Z,8.58
2023-03-05T20:40:25.137Z,8.81
2023-03-05T20:42:51.798Z,8.52
2023-03-05T20:45:18.411Z,8.64
2023-03-05T20:47:44.989Z,8.63
2023-03-05T20:50:11.594Z,8.78
2023-03-05T20:52:38.223Z,9.43
2023-03-05T20:55:04.832Z,9.72
2023-03-05T20:57:31.400Z,9.86
2023-03-05T20:59:57.978Z,9.48
2023-03-05T21:02:24.557Z,9.08
2023-03-05T21:04:51.203Z,9.50
2023-03-05T21:07:17.767Z,9.94
2023-03-05T21:09:44.351Z,9.79
2023-03-05T21:12:10.962Z,9.68
2023-03-05T21:14:37.565Z,9.26
2023-03-05T21:17:04.165Z,9.20
2023-03-05T21:19:33.334Z,9.60
2023-03-05T21:22:00.212Z,9.89
2023-03-05T21:24:26.794Z,9.86
2023-03-05T21:26:53.374Z,9.92
2023-03-05T21:29:19.949Z,10.47
2023-03-05T21:31:46.691Z,10.18
2023-03-05T21:34:13.310Z,10.07
2023-03-05T21:36:40.120Z,10.28
2023-03-05T21:39:06.692Z,10.38
2023-03-05T21:41:33.280Z,10.62
2023-03-05T21:43:59.886Z,10.54
2023-03-05T21:46:26.443Z,10.56
2023-03-05T21:48:53.028Z,10.49
2023-03-05T21:51:19.637Z,9.89
2023-03-05T21:53:46.404Z,9.91
2023-03-05T21:56:13.106Z,10.05
2023-03-05T21:58:39.746Z,10.02
2023-03-05T22:01:06.362Z,9.85
2023-03-05T22:03:33.011Z,9.67
2023-03-05T22:05:59.643Z,9.98
2023-03-05T22:08:26.199Z,10.38
2023-03-05T22:10:52.806Z,10.61
2023-03-05T22:13:19.388Z,10.42
2023-03-05T22:15:45.940Z,10.35
2023-03-05T22:18:12.557Z,10.35
2023-03-05T22:20:39.123Z,10.51
2023-03-05T22:23:05.701Z,10.30
2023-03-05T22:25:32.283Z,10.18
2023-03-05T22:27:58.848Z,10.02
2023-03-05T22:30:25.460Z,9.77
2023-03-05T22:32:52.034Z,9.47
2023-03-05T22:35:19.762Z,9.56
2023-03-05T22:37:46.376Z,9.73
2023-03-05T22:40:13.340Z,9.81
2023-03-05T22:42:39.904Z,10.02
2023-03-05T22:45:07.493Z,10.12
2023-03-05T22:47:34.080Z,10.08
2023-03-05T22:50:01.274Z,10.04
2023-03-05T22:52:27.867Z,9.68
2023-03-05T22:54:55.985Z,9.89
2023-03-05T22:57:22.691Z,9.24
2023-03-05T22:59:49.239Z,9.15
2023-03-05T23:02:15.797Z,9.03
2023-03-05T23:04:42.419Z,9.26
2023-03-05T23:07:09.051Z,9.36
2023-03-05T23:09:35.680Z,9.71
2023-03-05T23:12:02.272Z,9.90
2023-03-05T23:14:28.891Z,9.73
2023-03-05T23:16:55.449Z,9.75
2023-03-05T23:19:22.054Z,9.82
2023-03-05T23:21:48.626Z,9.74
2023-03-05T23:24:15.178Z,9.46
2023-03-05T23:26:41.776Z,9.73
2023-03-05T23:29:08.523Z,9.63
2023-03-05T23:31:35.137Z,9.84
2023-03-05T23:34:01.699Z,9.73
2023-03-05T23:36:28.269Z,9.52
2023-03-05T23:38:54.887Z,9.65
2023-03-05T23:41:21.469Z,9.48
2023-03-05T23:43:48.109Z,9.32
2023-03-05T23:46:17.772Z,9.66
2023-03-05T23:48:44.412Z,9.61
2023-03-05T23:51:10.976Z,9.68
2023-03-05T23:53:37.588Z,9.45
2023-03-05T23:56:05.175Z,9.79
2023-03-05T23:58:31.760Z,9.84
